タヒチ島 の空港の天気 - METARとTAF

タヒチ・ファアア国際空港 ( NTAA / PPT ) - フランス領ポリネシア タヒチ島
飛行場実況気象(Metar)
観測時間05/26 14:00 TAHT (05/27 00:00 UTC)
風向・風速不定 1m/s
視程10km以上
天気現象
少しの雲 雲底高度 610m
全天の8割程度の雲 雲底高度 1520m
気温28℃
湿度79%
気圧1014hPa
METARNTAA 270000Z VRB02KT 9999 FEW020CB BKN050 28/24 Q1014 NOSIG
過去の天気等 Google飛行場航空写真 Wunderground天気予報

過去48時間のMETAR

飛行場予報(TAF)
発表時間: 5/26 13:02 TAHT (5/26 23:02 UTC)
予報対象時間: 26日13時 TAHT ~ 27日14時 TAHT
風向・風速不定 3m/s
視程10km以上
少しの塔状積雲 雲底高度 610m
全天の4割程度の雲 雲底高度 610m
全天の8割程度の雲 雲底高度 9140m
26日13時 TAHT ~ 26日18時 TAHT に 確率 30% で一時的に
風向・風速北東 9m/s 瞬間風速 14m/s
視程1500m
天気現象強い雷雨
少しの雲 雲底高度 300m
全天の8割程度の積乱雲 雲底高度 490m
全天の8割程度の雲 雲底高度 1370m
TAF AMD NTAA 262302Z 2623/2724 VRB06KT 9999 FEW020TCU SCT020 BKN300
PROB30 TEMPO 2623/2704 04018G28KT 1500 +TSRA FEW010 BKN016CB BKN045